Lakeville, MN

8:30 AM CDT on March 24, 2017 (GMT -0500)
Airlake

Weather History for KLVN - November, 2010

Change the Weather History Date:

Sunday, November 21, 2010

  Actual Average Record
Temperature  
Mean Temperature 29 °F -  
Max Temperature 32 °F 36 °F 67 °F (1990)
Min Temperature 26 °F 20 °F -2 °F (1964)
Degree Days  
Heating Degree Days 36    
Moisture  
Dew Point 28 °F    
Average Humidity 96    
Maximum Humidity 100    
Minimum Humidity 86    
Precipitation  
Precipitation 0.02 in - - ()
Sea Level Pressure  
Sea Level Pressure 29.83 in    
Wind  
Wind Speed 10 mph (ENE)    
Max Wind Speed 14 mph    
Max Gust Speed -    
Visibility 6 miles    
Events      
Averages and records for this station are not official NWS values.
T = Trace of Precipitation, MM = Missing Value Source: NWS Daily Summary

Daily Weather History Graph

Daily Weather History Graph

Search for Another Location

Airport or City:

Trip Planner

Search our weather history database for the weather conditions in past years. The results will help you decide how hot, cold, wet, or windy it might be!

Date:

Astronomy

Nov. 21, 2010 Rise Set
Actual Time 7:17 AM CST 4:39 PM CST
Civil Twilight 6:45 AM CST 5:11 PM CST
Nautical Twilight 6:09 AM CST 5:47 PM CST
Astronomical Twilight 5:34 AM CST 6:22 PM CST
Moon 4:27 PM CST (11/21) 7:22 AM CST (11/21)
Length of Visible Light 10h 26m
Length of Day
9h 22m
Full, 100% of the Moon is Illuminated
Nov 21
Full
Nov 28
Last Quarter
Dec 5
New
Dec 13
First Quarter
Dec 21
Full

Hourly Weather History & Observations

Time (CST) Temp. Windchill Dew Point Humidity Pressure Visibility Wind Dir Wind Speed Gust Speed Precip Events Conditions
12:12 AM 26.6 °F 15.2 °F 23.0 °F 86% 30.06 in 5.0 mi East 13.8 mph - N/A   Overcast
12:32 AM 26.6 °F 15.2 °F 23.0 °F 86% 30.04 in 7.0 mi East 13.8 mph - N/A   Overcast
12:52 AM 26.6 °F 16.2 °F 23.0 °F 86% 30.03 in 10.0 mi East 11.5 mph - N/A   Overcast
1:12 AM 26.6 °F 16.2 °F 23.0 °F 86% 30.03 in 10.0 mi East 11.5 mph - N/A   Overcast
1:32 AM 26.6 °F 16.2 °F 24.8 °F 93% 30.02 in 10.0 mi East 11.5 mph - N/A   Overcast
1:52 AM 26.6 °F 16.2 °F 24.8 °F 93% 30.00 in 10.0 mi East 11.5 mph - N/A   Overcast
2:12 AM 26.6 °F 17.5 °F 24.8 °F 93% 30.00 in 10.0 mi East 9.2 mph - N/A   Overcast
2:32 AM 26.6 °F 16.8 °F 24.8 °F 93% 29.99 in 10.0 mi East 10.4 mph - N/A   Overcast
2:52 AM 26.6 °F 17.5 °F 24.8 °F 93% 29.97 in 10.0 mi East 9.2 mph - N/A   Overcast
3:12 AM 26.6 °F 16.8 °F 24.8 °F 93% 29.96 in 10.0 mi East 10.4 mph - N/A   Overcast
3:32 AM 28.4 °F 18.0 °F 24.8 °F 86% 29.95 in 10.0 mi East 12.7 mph - N/A   Overcast
3:52 AM 28.4 °F 17.5 °F 24.8 °F 86% 29.94 in 10.0 mi East 13.8 mph - N/A   Overcast
4:12 AM 28.4 °F 18.5 °F 26.6 °F 93% 29.93 in 10.0 mi East 11.5 mph - N/A   Overcast
4:32 AM 28.4 °F 18.0 °F 26.6 °F 93% 29.92 in 7.0 mi East 12.7 mph - N/A   Overcast
4:52 AM 28.4 °F 18.5 °F 26.6 °F 93% 29.91 in 7.0 mi East 11.5 mph - N/A   Overcast
5:12 AM 28.4 °F 18.5 °F 26.6 °F 93% 29.90 in 5.0 mi East 11.5 mph - N/A   Overcast
5:32 AM 28.4 °F 19.1 °F 26.6 °F 93% 29.90 in 5.0 mi East 10.4 mph - N/A   Overcast
5:52 AM 28.4 °F 18.5 °F 26.6 °F 93% 29.88 in 10.0 mi East 11.5 mph - N/A   Overcast
6:12 AM 28.4 °F 19.1 °F 26.6 °F 93% 29.88 in 7.0 mi East 10.4 mph - N/A   Overcast
6:32 AM 28.4 °F 19.1 °F 28.4 °F 100% 29.87 in 5.0 mi East 10.4 mph - N/A   Overcast
6:52 AM 28.4 °F 19.1 °F 28.4 °F 100% 29.86 in 3.0 mi East 10.4 mph - N/A   Overcast
7:12 AM 28.4 °F 19.7 °F 28.4 °F 100% 29.85 in 5.0 mi ESE 9.2 mph - N/A   Overcast
7:32 AM 28.4 °F 18.0 °F 28.4 °F 100% 29.82 in 7.0 mi East 12.7 mph - N/A   Overcast
7:52 AM 30.2 °F 21.3 °F 28.4 °F 93% 29.81 in 4.0 mi East 10.4 mph - N/A   Overcast
8:12 AM 30.2 °F 20.8 °F 28.4 °F 93% 29.81 in 4.0 mi East 11.5 mph - N/A   Overcast
8:32 AM 30.2 °F 22.6 °F 28.4 °F 93% 29.81 in 3.0 mi East 8.1 mph - N/A   Overcast
8:52 AM 30.2 °F 21.9 °F 30.2 °F 100% 29.80 in 2.5 mi East 9.2 mph - N/A   Overcast
9:32 AM 30.2 °F 21.9 °F 30.2 °F 100% 29.78 in 1.0 mi East 9.2 mph - N/A   Overcast
9:52 AM 30.2 °F 22.6 °F 30.2 °F 100% 29.78 in 1.0 mi East 8.1 mph - N/A   Overcast
10:12 AM 30.2 °F 22.6 °F 30.2 °F 100% 29.78 in 1.0 mi East 8.1 mph - N/A   Overcast
10:52 AM 30.2 °F 23.4 °F 30.2 °F 100% 29.77 in 1.2 mi East 6.9 mph - N/A   Overcast
11:32 AM 30.2 °F 26.7 °F 30.2 °F 100% 29.76 in 1.0 mi NE 3.5 mph - N/A   Overcast
11:55 AM 30.2 °F 25.4 °F 30.2 °F 100% 29.74 in 1.0 mi ENE 4.6 mph - 0.01 in   Overcast
12:12 PM 30.2 °F 25.4 °F 30.2 °F 100% 29.74 in 1.2 mi ENE 4.6 mph - N/A   Overcast
12:32 PM 30.2 °F 25.4 °F 30.2 °F 100% 29.72 in 1.5 mi NE 4.6 mph - 0.01 in   Light Freezing Rain
1:12 PM 30.2 °F 25.4 °F 30.2 °F 100% 29.71 in 4.0 mi NE 4.6 mph - N/A   Overcast
1:32 PM 32.0 °F 28.7 °F 32.0 °F 100% 29.70 in 4.0 mi NE 3.5 mph - N/A   Overcast
1:52 PM 32.0 °F 28.7 °F 32.0 °F 100% 29.70 in 3.0 mi ENE 3.5 mph - N/A   Overcast
2:12 PM 32.0 °F 28.7 °F 32.0 °F 100% 29.70 in 4.0 mi NNE 3.5 mph - N/A   Overcast
2:32 PM 32.0 °F - 32.0 °F 100% 29.70 in 3.0 mi Calm Calm - N/A   Overcast
2:52 PM 32.0 °F 26.4 °F 32.0 °F 100% 29.71 in 1.8 mi NNW 5.8 mph - N/A   Overcast
3:12 PM 32.0 °F 25.6 °F 32.0 °F 100% 29.71 in 1.5 mi NW 6.9 mph - N/A   Overcast
3:52 PM 32.0 °F 24.2 °F 32.0 °F 100% 29.72 in 2.0 mi NNW 9.2 mph - N/A   Overcast
4:12 PM 30.2 °F 21.9 °F 30.2 °F 100% 29.73 in 2.0 mi NW 9.2 mph - N/A   Overcast
4:32 PM 30.2 °F 21.3 °F 30.2 °F 100% 29.74 in 2.0 mi NNW 10.4 mph - N/A   Overcast
4:52 PM 30.2 °F 22.6 °F 30.2 °F 100% 29.75 in 4.0 mi NNW 8.1 mph - N/A   Overcast
5:12 PM 30.2 °F 22.6 °F 30.2 °F 100% 29.76 in 5.0 mi NW 8.1 mph - N/A   Overcast
5:32 PM 30.2 °F 21.3 °F 30.2 °F 100% 29.76 in 7.0 mi NW 10.4 mph - N/A   Overcast
5:52 PM 30.2 °F 21.9 °F 30.2 °F 100% 29.77 in 7.0 mi NW 9.2 mph - N/A   Overcast
6:12 PM 30.2 °F 22.6 °F 30.2 °F 100% 29.78 in 7.0 mi NW 8.1 mph - N/A   Overcast
6:32 PM 30.2 °F 22.6 °F 30.2 °F 100% 29.79 in 7.0 mi NW 8.1 mph - N/A   Overcast
6:52 PM 30.2 °F 21.9 °F 30.2 °F 100% 29.79 in 10.0 mi NW 9.2 mph - N/A   Overcast
7:12 PM 30.2 °F 21.9 °F 30.2 °F 100% 29.80 in 10.0 mi NW 9.2 mph - N/A   Overcast
7:32 PM 30.2 °F 21.9 °F 30.2 °F 100% 29.80 in 10.0 mi NW 9.2 mph - N/A   Overcast
7:52 PM 30.2 °F 22.6 °F 30.2 °F 100% 29.80 in 10.0 mi NW 8.1 mph - N/A   Overcast
8:12 PM 30.2 °F 21.9 °F 30.2 °F 100% 29.81 in 10.0 mi NW 9.2 mph - N/A   Overcast
8:32 PM 30.2 °F 21.9 °F 28.4 °F 93% 29.82 in 10.0 mi NW 9.2 mph - N/A   Overcast
8:52 PM 30.2 °F 21.3 °F 28.4 °F 93% 29.82 in 10.0 mi NW 10.4 mph - N/A   Overcast
9:12 PM 30.2 °F 21.3 °F 28.4 °F 93% 29.83 in 10.0 mi NW 10.4 mph - N/A   Overcast
9:32 PM 30.2 °F 23.4 °F 28.4 °F 93% 29.84 in 10.0 mi NW 6.9 mph - N/A   Overcast
9:52 PM 30.2 °F 20.8 °F 28.4 °F 93% 29.84 in 10.0 mi NW 11.5 mph - N/A   Overcast
10:12 PM 30.2 °F 21.3 °F 28.4 °F 93% 29.84 in 10.0 mi NW 10.4 mph - N/A   Overcast
10:32 PM 30.2 °F 21.3 °F 28.4 °F 93% 29.85 in 10.0 mi WNW 10.4 mph - N/A   Overcast
10:52 PM 30.2 °F 21.3 °F 28.4 °F 93% 29.85 in 10.0 mi NW 10.4 mph - N/A   Overcast
11:12 PM 30.2 °F 20.2 °F 28.4 °F 93% 29.85 in 10.0 mi NW 12.7 mph - N/A   Overcast
11:32 PM 28.4 °F 19.1 °F 26.6 °F 93% 29.86 in 10.0 mi NW 10.4 mph - N/A   Overcast
11:52 PM 28.4 °F 18.5 °F 26.6 °F 93% 29.85 in 10.0 mi NNW 11.5 mph - N/A   Overcast